Time;durP1;ratioP1;P1;durP2;ratioP2;P2;SDS_P1;SDS_P2;PMS_P1;PMS_P2;Temp;Humidity;BMP_temperature;BMP_pressure;BME280_temperature;BME280_humidity;BME280_pressure;Samples;Min_cycle;Max_cycle;Signal;HPM_P1;HPM_P2
2023/05/09 00:02:03;;;;;;;;;1.00;1.00;;;;;;;;5036796;28;45531;-82
2023/05/09 00:04:29;;;;;;;;;0.00;0.00;;;;;;;;5037161;28;45344;-82
2023/05/09 00:06:54;;;;;;;;;1.50;0.75;;;;;;;;5036978;28;45990;-83
2023/05/09 00:09:19;;;;;;;;;1.75;1.00;;;;;;;;5036754;28;45361;-83
2023/05/09 00:11:44;;;;;;;;;0.00;0.00;;;;;;;;5036012;28;45415;-83
2023/05/09 00:14:12;;;;;;;;;1.67;1.00;;;;;;;;5037036;28;45415;-82
2023/05/09 00:16:38;;;;;;;;;2.00;0.50;;;;;;;;5036300;28;47266;-83
2023/05/09 00:19:03;;;;;;;;;0.50;0.25;;;;;;;;5036644;28;45211;-82
2023/05/09 00:21:29;;;;;;;;;2.25;1.00;;;;;;;;5036891;28;45310;-82
2023/05/09 00:23:54;;;;;;;;;2.25;1.00;;;;;;;;5036774;28;45374;-83
2023/05/09 00:26:21;;;;;;;;;2.00;1.00;;;;;;;;5036498;28;45406;-82
2023/05/09 00:28:46;;;;;;;;;0.00;0.00;;;;;;;;5036621;28;45401;-82
2023/05/09 00:31:12;;;;;;;;;1.00;0.75;;;;;;;;5036274;28;45534;-82
2023/05/09 00:33:37;;;;;;;;;0.00;0.00;;;;;;;;5036667;28;45416;-83
2023/05/09 00:36:02;;;;;;;;;1.00;1.00;;;;;;;;5036495;28;45376;-82
2023/05/09 00:38:27;;;;;;;;;0.67;0.67;;;;;;;;5036067;28;45384;-82
2023/05/09 00:40:52;;;;;;;;;1.00;1.00;;;;;;;;5036668;28;45517;-82
2023/05/09 00:43:18;;;;;;;;;0.00;0.00;;;;;;;;5036561;28;45431;-82
2023/05/09 00:45:44;;;;;;;;;0.67;0.67;;;;;;;;5035963;28;46307;-83
2023/05/09 00:48:09;;;;;;;;;0.50;0.50;;;;;;;;5036481;28;45636;-82
2023/05/09 00:50:35;;;;;;;;;0.00;0.00;;;;;;;;5036467;28;45433;-82
2023/05/09 00:53:00;;;;;;;;;0.50;0.50;;;;;;;;5036422;28;45354;-82
2023/05/09 00:55:26;;;;;;;;;1.75;1.00;;;;;;;;5036300;28;45548;-82
2023/05/09 00:57:51;;;;;;;;;3.00;0.00;;;;;;;;5036197;28;45497;-82
2023/05/09 01:00:16;;;;;;;;;1.50;0.25;;;;;;;;5018020;28;45360;-82
2023/05/09 01:02:43;;;;;;;;;0.75;0.75;;;;;;;;5036164;28;45354;-83
2023/05/09 01:05:09;;;;;;;;;0.00;0.00;;;;;;;;5035948;28;46595;-82
2023/05/09 01:07:38;;;;;;;;;1.00;0.00;;;;;;;;5035981;28;45644;-82
2023/05/09 01:10:14;;;;;;;;;2.75;1.00;;;;;;;;5018133;28;45403;-82
2023/05/09 01:12:42;;;;;;;;;0.00;0.00;;;;;;;;5036155;28;45573;-82
2023/05/09 01:15:13;;;;;;;;;0.75;0.75;;;;;;;;5035339;28;47234;-82
2023/05/09 01:17:58;;;;;;;;;1.00;1.00;;;;;;;;5036051;28;45322;-82
2023/05/09 01:20:36;;;;;;;;;0.00;0.00;;;;;;;;5035958;28;45401;-82
2023/05/09 01:23:14;;;;;;;;;1.50;0.00;;;;;;;;5035815;28;45595;-82
2023/05/09 01:25:47;;;;;;;;;1.00;1.00;;;;;;;;5035598;28;45460;-79
2023/05/09 01:28:16;;;;;;;;;2.50;0.00;;;;;;;;5035459;28;45354;-79
2023/05/09 01:30:44;;;;;;;;;3.00;1.50;;;;;;;;5017876;28;45353;-79
2023/05/09 01:33:12;;;;;;;;;0.75;0.75;;;;;;;;5035769;28;45310;-79
2023/05/09 01:35:39;;;;;;;;;3.75;0.75;;;;;;;;5035481;28;45664;-78
2023/05/09 01:38:08;;;;;;;;;2.00;0.00;;;;;;;;5035474;28;45561;-79
2023/05/09 01:40:33;;;;;;;;;1.00;1.00;;;;;;;;5035726;28;45436;-78
2023/05/09 01:43:02;;;;;;;;;0.00;0.00;;;;;;;;5035337;28;45440;-79
2023/05/09 01:45:28;;;;;;;;;1.00;0.25;;;;;;;;5035533;28;46458;-79
2023/05/09 01:47:54;;;;;;;;;2.00;0.00;;;;;;;;5035380;28;45460;-78
2023/05/09 01:50:21;;;;;;;;;1.00;1.00;;;;;;;;5035628;28;45304;-79
2023/05/09 01:52:47;;;;;;;;;0.00;0.00;;;;;;;;5035464;28;45479;-79
2023/05/09 01:55:13;;;;;;;;;3.00;1.00;;;;;;;;5035373;28;45505;-79
2023/05/09 01:57:39;;;;;;;;;2.00;0.75;;;;;;;;5035098;28;45637;-79
2023/05/09 02:00:06;;;;;;;;;1.00;0.25;;;;;;;;5035353;28;45313;-78
2023/05/09 02:02:32;;;;;;;;;1.00;1.00;;;;;;;;5035329;28;45536;-78
2023/05/09 02:04:58;;;;;;;;;2.00;0.50;;;;;;;;5035288;28;46557;-79
2023/05/09 02:07:23;;;;;;;;;1.00;1.00;;;;;;;;5035237;28;45287;-80
2023/05/09 02:09:49;;;;;;;;;3.00;1.50;;;;;;;;5035416;28;45296;-79
2023/05/09 02:12:14;;;;;;;;;2.00;0.25;;;;;;;;5034753;28;45479;-78
2023/05/09 02:14:39;;;;;;;;;1.00;0.33;;;;;;;;5035239;28;46407;-79
2023/05/09 02:17:05;;;;;;;;;2.25;1.00;;;;;;;;5035009;28;45341;-78
2023/05/09 02:19:34;;;;;;;;;1.00;1.00;;;;;;;;5035250;28;45533;-79
2023/05/09 02:22:00;;;;;;;;;1.00;1.00;;;;;;;;5035112;28;45356;-78
2023/05/09 02:24:25;;;;;;;;;1.50;0.75;;;;;;;;5034962;28;45435;-78
2023/05/09 02:26:50;;;;;;;;;2.25;1.00;;;;;;;;5034625;28;45384;-79
2023/05/09 02:29:18;;;;;;;;;2.00;2.00;;;;;;;;5035183;28;45336;-79
2023/05/09 02:31:45;;;;;;;;;2.00;1.00;;;;;;;;5035087;28;45414;-78
2023/05/09 02:34:12;;;;;;;;;1.50;1.00;;;;;;;;5035046;28;46603;-79
2023/05/09 02:36:37;;;;;;;;;1.00;1.00;;;;;;;;5038273;28;45334;-78
2023/05/09 02:39:02;;;;;;;;;1.00;0.00;;;;;;;;5038271;28;45417;-79
2023/05/09 02:41:28;;;;;;;;;0.67;0.67;;;;;;;;5038059;28;45782;-79
2023/05/09 02:43:54;;;;;;;;;0.75;0.25;;;;;;;;5038109;28;45295;-78
2023/05/09 02:46:19;;;;;;;;;0.75;0.75;;;;;;;;5038370;28;45268;-78
2023/05/09 02:48:44;;;;;;;;;2.00;1.00;;;;;;;;5038392;28;45250;-78
2023/05/09 02:51:09;;;;;;;;;0.00;0.00;;;;;;;;5038184;28;45301;-79
2023/05/09 02:53:34;;;;;;;;;2.00;0.67;;;;;;;;5038160;28;46410;-78
2023/05/09 02:56:00;;;;;;;;;0.00;0.00;;;;;;;;5037834;28;45254;-78
2023/05/09 02:58:25;;;;;;;;;0.00;0.00;;;;;;;;5038169;28;45520;-78
2023/05/09 03:00:50;;;;;;;;;0.00;0.00;;;;;;;;5038391;28;45330;-78
2023/05/09 03:03:16;;;;;;;;;4.00;1.00;;;;;;;;5037631;28;45416;-79
2023/05/09 03:05:42;;;;;;;;;1.25;0.75;;;;;;;;5037849;28;45602;-79
2023/05/09 03:08:07;;;;;;;;;3.00;1.00;;;;;;;;5037996;28;45583;-78
2023/05/09 03:10:32;;;;;;;;;0.67;0.67;;;;;;;;5037481;28;45243;-78
2023/05/09 03:12:57;;;;;;;;;2.67;1.00;;;;;;;;5037687;28;45403;-78
2023/05/09 03:15:22;;;;;;;;;1.67;1.00;;;;;;;;5037773;28;45404;-78
2023/05/09 03:17:48;;;;;;;;;0.33;0.33;;;;;;;;5037812;28;45341;-78
2023/05/09 03:20:14;;;;;;;;;2.00;1.00;;;;;;;;5037883;28;45362;-78
2023/05/09 03:22:39;;;;;;;;;2.25;1.00;;;;;;;;5037291;28;47350;-78
2023/05/09 03:25:05;;;;;;;;;1.00;1.00;;;;;;;;5037409;28;45154;-77
2023/05/09 03:27:30;;;;;;;;;1.00;1.00;;;;;;;;5037603;28;45234;-78
2023/05/09 03:29:55;;;;;;;;;0.33;0.33;;;;;;;;5037633;28;45512;-78
2023/05/09 03:32:20;;;;;;;;;1.00;1.00;;;;;;;;5037349;28;45485;-78
2023/05/09 03:34:46;;;;;;;;;0.67;0.67;;;;;;;;5037432;28;45444;-78
2023/05/09 03:37:11;;;;;;;;;1.67;1.67;;;;;;;;5037600;28;45353;-78
2023/05/09 03:39:36;;;;;;;;;1.00;1.00;;;;;;;;5037144;28;45353;-80
2023/05/09 03:42:01;;;;;;;;;1.67;1.67;;;;;;;;5037148;28;46104;-81
2023/05/09 03:44:26;;;;;;;;;0.33;0.00;;;;;;;;5037201;28;45469;-79
2023/05/09 03:46:52;;;;;;;;;1.00;0.00;;;;;;;;5036366;28;45380;-78
2023/05/09 03:49:17;;;;;;;;;0.00;0.00;;;;;;;;5037236;28;45414;-78
2023/05/09 03:51:42;;;;;;;;;0.67;0.67;;;;;;;;5037127;28;46614;-78
2023/05/09 03:54:07;;;;;;;;;0.00;0.00;;;;;;;;5036825;28;45446;-78
2023/05/09 03:56:32;;;;;;;;;1.00;0.00;;;;;;;;5037321;28;45317;-77
2023/05/09 03:58:58;;;;;;;;;0.00;0.00;;;;;;;;5037066;28;45404;-77
2023/05/09 04:01:23;;;;;;;;;0.00;0.00;;;;;;;;5037098;28;46099;-78
2023/05/09 04:03:49;;;;;;;;;0.75;0.00;;;;;;;;5036801;28;45385;-76
2023/05/09 04:06:14;;;;;;;;;1.00;0.00;;;;;;;;5037222;28;45493;-76
2023/05/09 04:08:40;;;;;;;;;0.00;0.00;;;;;;;;5036744;28;45475;-76
2023/05/09 04:11:05;;;;;;;;;0.00;0.00;;;;;;;;5036872;28;46432;-76
2023/05/09 04:13:31;;;;;;;;;0.00;0.00;;;;;;;;5036914;28;45702;-78
2023/05/09 04:15:57;;;;;;;;;0.25;0.00;;;;;;;;5036890;28;45302;-77
2023/05/09 04:18:22;;;;;;;;;0.00;0.00;;;;;;;;5036901;28;45366;-78
2023/05/09 04:20:47;;;;;;;;;0.00;0.00;;;;;;;;5018904;28;48092;-78
2023/05/09 04:23:12;;;;;;;;;2.00;0.00;;;;;;;;5036390;28;45500;-77
2023/05/09 04:25:38;;;;;;;;;0.00;0.00;;;;;;;;5036867;28;45191;-77
2023/05/09 04:28:03;;;;;;;;;0.00;0.00;;;;;;;;5036718;28;45466;-78
2023/05/09 04:30:28;;;;;;;;;0.00;0.00;;;;;;;;5036508;28;46306;-79
2023/05/09 04:32:54;;;;;;;;;0.00;0.00;;;;;;;;5036861;28;45192;-79
2023/05/09 04:35:19;;;;;;;;;0.00;0.00;;;;;;;;5036632;28;45373;-79
2023/05/09 04:37:45;;;;;;;;;1.00;1.00;;;;;;;;5036052;28;45397;-79
2023/05/09 04:40:10;;;;;;;;;0.00;0.00;;;;;;;;5036510;28;46533;-79
2023/05/09 04:42:36;;;;;;;;;0.00;0.00;;;;;;;;5018555;28;45409;-79
2023/05/09 04:45:02;;;;;;;;;1.00;0.00;;;;;;;;5036712;28;45369;-78
2023/05/09 04:47:27;;;;;;;;;1.00;0.00;;;;;;;;5036510;28;45540;-78
2023/05/09 04:49:52;;;;;;;;;0.00;0.00;;;;;;;;5036704;28;45537;-77
2023/05/09 04:52:17;;;;;;;;;2.00;1.00;;;;;;;;5036142;28;45383;-78
2023/05/09 04:54:42;;;;;;;;;0.00;0.00;;;;;;;;5036450;28;45306;-78
2023/05/09 04:57:08;;;;;;;;;0.00;0.00;;;;;;;;5036081;28;45371;-79
2023/05/09 04:59:33;;;;;;;;;0.00;0.00;;;;;;;;5036128;28;45368;-78
2023/05/09 05:01:58;;;;;;;;;0.00;0.00;;;;;;;;5036209;28;45281;-78
2023/05/09 05:04:23;;;;;;;;;1.67;0.00;;;;;;;;5036158;28;45431;-79
2023/05/09 05:06:48;;;;;;;;;0.00;0.00;;;;;;;;5036073;28;45382;-79
2023/05/09 05:09:14;;;;;;;;;1.00;1.00;;;;;;;;5035796;28;47100;-80
2023/05/09 05:11:39;;;;;;;;;0.00;0.00;;;;;;;;5035954;28;45427;-79
2023/05/09 05:14:04;;;;;;;;;2.67;1.00;;;;;;;;5036228;28;45281;-80
2023/05/09 05:16:29;;;;;;;;;0.00;0.00;;;;;;;;5035933;28;45356;-78
2023/05/09 05:18:55;;;;;;;;;0.00;0.00;;;;;;;;5035712;28;46545;-79
2023/05/09 05:21:20;;;;;;;;;1.00;0.00;;;;;;;;5035462;28;45294;-79
2023/05/09 05:23:45;;;;;;;;;0.00;0.00;;;;;;;;5035983;28;45298;-78
2023/05/09 05:26:10;;;;;;;;;0.00;0.00;;;;;;;;5036123;28;45350;-78
2023/05/09 05:28:35;;;;;;;;;1.00;0.00;;;;;;;;5035713;28;45436;-79
2023/05/09 05:31:00;;;;;;;;;0.00;0.00;;;;;;;;5035772;28;45413;-78
2023/05/09 05:33:26;;;;;;;;;1.33;0.00;;;;;;;;5035985;28;45406;-78
2023/05/09 05:35:51;;;;;;;;;0.00;0.00;;;;;;;;5035512;28;45351;-79
2023/05/09 05:38:16;;;;;;;;;2.00;1.00;;;;;;;;5035355;28;45777;-78
2023/05/09 05:40:41;;;;;;;;;0.00;0.00;;;;;;;;5035492;28;45491;-80
2023/05/09 05:43:06;;;;;;;;;2.33;0.00;;;;;;;;5035696;28;45309;-83
2023/05/09 05:45:31;;;;;;;;;0.00;0.00;;;;;;;;5017771;28;45493;-83
2023/05/09 05:47:57;;;;;;;;;0.00;0.00;;;;;;;;5035386;28;46096;-78
2023/05/09 05:50:22;;;;;;;;;0.00;0.00;;;;;;;;5035164;28;45362;-78
2023/05/09 05:52:47;;;;;;;;;1.33;0.00;;;;;;;;5035613;28;45236;-79
2023/05/09 05:55:12;;;;;;;;;1.00;1.00;;;;;;;;5035504;28;45214;-80
2023/05/09 05:57:38;;;;;;;;;0.00;0.00;;;;;;;;5035327;28;46849;-79
2023/05/09 06:00:06;;;;;;;;;0.00;0.00;;;;;;;;5035271;28;45485;-79
2023/05/09 06:02:31;;;;;;;;;0.50;0.50;;;;;;;;5035444;28;45548;-77
2023/05/09 06:04:56;;;;;;;;;1.00;1.00;;;;;;;;5035068;28;45439;-78
2023/05/09 06:07:22;;;;;;;;;0.00;0.00;;;;;;;;5035225;28;45379;-78
2023/05/09 06:09:47;;;;;;;;;1.33;0.33;;;;;;;;5036198;28;45341;-77
2023/05/09 06:12:15;;;;;;;;;1.67;0.00;;;;;;;;5038971;28;45412;-78
2023/05/09 06:14:40;;;;;;;;;4.25;1.00;;;;;;;;5038900;28;45363;-79
2023/05/09 06:17:05;;;;;;;;;0.33;0.33;;;;;;;;5038485;28;46696;-79
2023/05/09 06:19:30;;;;;;;;;1.00;1.00;;;;;;;;5038394;28;45416;-77
2023/05/09 06:21:56;;;;;;;;;1.67;0.00;;;;;;;;5038870;28;45420;-78
2023/05/09 06:24:21;;;;;;;;;0.00;0.00;;;;;;;;5038640;28;45592;-78
2023/05/09 06:26:46;;;;;;;;;0.00;0.00;;;;;;;;5038574;28;46175;-78
2023/05/09 06:29:13;;;;;;;;;2.00;2.00;;;;;;;;5038441;28;45518;-77
2023/05/09 06:31:39;;;;;;;;;0.00;0.00;;;;;;;;5038625;28;45406;-77
2023/05/09 06:34:04;;;;;;;;;0.00;0.00;;;;;;;;5038248;28;45318;-79
2023/05/09 06:36:31;;;;;;;;;1.00;1.00;;;;;;;;5038247;28;45492;-78
2023/05/09 06:38:56;;;;;;;;;1.00;0.00;;;;;;;;5038264;28;45400;-79
2023/05/09 06:41:21;;;;;;;;;0.00;0.00;;;;;;;;5032628;28;45540;-78
2023/05/09 06:43:46;;;;;;;;;2.67;0.00;;;;;;;;5032071;28;45484;-77
2023/05/09 06:46:12;;;;;;;;;0.00;0.00;;;;;;;;5037840;28;45595;-77
2023/05/09 06:48:37;;;;;;;;;1.00;1.00;;;;;;;;5018044;28;45335;-77
2023/05/09 06:51:02;;;;;;;;;1.00;1.00;;;;;;;;5021892;28;45416;-78
2023/05/09 06:53:27;;;;;;;;;1.00;0.00;;;;;;;;5033467;28;45478;-77
2023/05/09 06:55:52;;;;;;;;;0.00;0.00;;;;;;;;5037673;28;45317;-78
2023/05/09 06:58:18;;;;;;;;;0.33;0.00;;;;;;;;5037773;28;45460;-78
2023/05/09 07:00:43;;;;;;;;;0.00;0.00;;;;;;;;5038022;28;45338;-78
2023/05/09 07:03:09;;;;;;;;;1.00;0.00;;;;;;;;5037660;28;45381;-78
2023/05/09 07:05:34;;;;;;;;;1.00;0.00;;;;;;;;5032309;28;45436;-76
2023/05/09 07:08:00;;;;;;;;;1.25;0.00;;;;;;;;5027372;28;45484;-77
2023/05/09 07:10:25;;;;;;;;;0.00;0.00;;;;;;;;5019383;28;45732;-78
2023/05/09 07:12:50;;;;;;;;;0.00;0.00;;;;;;;;5025509;28;46404;-77
2023/05/09 07:15:16;;;;;;;;;0.00;0.00;;;;;;;;5028410;28;45440;-77
2023/05/09 07:17:41;;;;;;;;;2.67;0.00;;;;;;;;5025022;28;45960;-77
2023/05/09 07:20:06;;;;;;;;;0.00;0.00;;;;;;;;5036746;28;45412;-75
2023/05/09 07:22:32;;;;;;;;;0.50;0.00;;;;;;;;5020557;28;45617;-76
2023/05/09 07:24:57;;;;;;;;;0.00;0.00;;;;;;;;5029852;28;45710;-77
2023/05/09 07:27:22;;;;;;;;;1.00;0.00;;;;;;;;5034644;28;45433;-77
2023/05/09 07:29:51;;;;;;;;;1.00;0.00;;;;;;;;5016592;28;45373;-76
2023/05/09 07:32:20;;;;;;;;;2.00;0.75;;;;;;;;5030587;28;45591;-76
2023/05/09 07:34:45;;;;;;;;;0.50;0.25;;;;;;;;5033362;28;46648;-77
2023/05/09 07:37:10;;;;;;;;;1.67;0.00;;;;;;;;5025906;28;46683;-76
2023/05/09 07:39:35;;;;;;;;;0.00;0.00;;;;;;;;5029694;28;45480;-78
2023/05/09 07:42:00;;;;;;;;;0.00;0.00;;;;;;;;5008167;28;45608;-77
2023/05/09 07:44:26;;;;;;;;;0.67;0.67;;;;;;;;5032583;28;46486;-75
2023/05/09 07:46:51;;;;;;;;;1.00;1.00;;;;;;;;5031310;28;45752;-75
2023/05/09 07:49:16;;;;;;;;;0.67;0.00;;;;;;;;5036428;28;45314;-75
2023/05/09 07:51:46;;;;;;;;;1.00;0.00;;;;;;;;5030694;28;46449;-74
2023/05/09 07:54:11;;;;;;;;;0.25;0.25;;;;;;;;5026730;28;46153;-75
2023/05/09 07:56:36;;;;;;;;;0.00;0.00;;;;;;;;5017307;28;45464;-75
2023/05/09 07:59:02;;;;;;;;;1.00;0.00;;;;;;;;5032662;28;45381;-75
2023/05/09 08:01:27;;;;;;;;;1.00;0.00;;;;;;;;5026173;28;45516;-76
2023/05/09 08:03:52;;;;;;;;;0.00;0.00;;;;;;;;5038821;28;46437;-76
2023/05/09 08:06:18;;;;;;;;;0.00;0.00;;;;;;;;5026575;28;45433;-76
2023/05/09 08:08:43;;;;;;;;;0.00;0.00;;;;;;;;5034620;28;45889;-75
2023/05/09 08:11:08;;;;;;;;;0.33;0.33;;;;;;;;5035001;28;45548;-75
2023/05/09 08:13:33;;;;;;;;;1.00;0.00;;;;;;;;5034933;28;46139;-76
2023/05/09 08:15:59;;;;;;;;;1.00;0.00;;;;;;;;5028800;28;45472;-76
2023/05/09 08:18:25;;;;;;;;;0.00;0.00;;;;;;;;5023172;28;45524;-75
2023/05/09 08:20:50;;;;;;;;;1.00;0.00;;;;;;;;5025879;28;45472;-75
2023/05/09 08:23:15;;;;;;;;;0.00;0.00;;;;;;;;5035749;28;46102;-76
2023/05/09 08:25:41;;;;;;;;;0.00;0.00;;;;;;;;5035604;28;45298;-77
2023/05/09 08:28:07;;;;;;;;;2.00;0.00;;;;;;;;5034028;28;45401;-76
2023/05/09 08:30:32;;;;;;;;;0.00;0.00;;;;;;;;5030118;28;45576;-76
2023/05/09 08:32:57;;;;;;;;;2.33;0.00;;;;;;;;5033650;28;45403;-76
2023/05/09 08:35:22;;;;;;;;;0.00;0.00;;;;;;;;5035738;28;45203;-77
2023/05/09 08:37:47;;;;;;;;;1.00;0.00;;;;;;;;5025161;28;45287;-76
2023/05/09 08:40:13;;;;;;;;;1.00;1.00;;;;;;;;5036517;28;45559;-76
2023/05/09 08:42:39;;;;;;;;;1.00;0.00;;;;;;;;5047321;28;45955;-76
2023/05/09 08:45:06;;;;;;;;;2.00;0.25;;;;;;;;5035841;28;45460;-75
2023/05/09 08:47:34;;;;;;;;;1.00;1.00;;;;;;;;5035159;28;45595;-76
2023/05/09 08:50:01;;;;;;;;;2.00;0.00;;;;;;;;5035408;28;45808;-76
2023/05/09 08:52:28;;;;;;;;;2.00;0.50;;;;;;;;5034610;28;45517;-75
2023/05/09 08:54:53;;;;;;;;;1.00;0.00;;;;;;;;5030250;28;45442;-76
2023/05/09 08:57:18;;;;;;;;;0.33;0.33;;;;;;;;5035370;28;45326;-76
2023/05/09 08:59:45;;;;;;;;;1.00;0.00;;;;;;;;5034751;28;45591;-75
2023/05/09 09:02:13;;;;;;;;;2.00;0.25;;;;;;;;5027184;28;47003;-76
2023/05/09 09:04:38;;;;;;;;;1.00;0.00;;;;;;;;5034623;28;45694;-77
2023/05/09 09:07:04;;;;;;;;;0.00;0.00;;;;;;;;5034197;28;45380;-76
2023/05/09 09:09:30;;;;;;;;;1.00;0.00;;;;;;;;5035228;28;45365;-76
2023/05/09 09:11:56;;;;;;;;;2.75;1.00;;;;;;;;5034501;28;46422;-76
2023/05/09 09:14:24;;;;;;;;;0.50;0.00;;;;;;;;5034917;28;45409;-78
2023/05/09 09:16:51;;;;;;;;;0.25;0.00;;;;;;;;5023499;28;45522;-76
2023/05/09 09:19:17;;;;;;;;;0.00;0.00;;;;;;;;5034188;28;45678;-77
2023/05/09 09:21:44;;;;;;;;;1.50;0.25;;;;;;;;5033852;28;45522;-77
2023/05/09 09:24:11;;;;;;;;;1.00;1.00;;;;;;;;5029908;28;45546;-78
2023/05/09 09:26:44;;;;;;;;;0.00;0.00;;;;;;;;5033170;28;45505;-77
2023/05/09 09:29:09;;;;;;;;;0.00;0.00;;;;;;;;5029608;28;45452;-77
2023/05/09 09:31:34;;;;;;;;;1.00;1.00;;;;;;;;5028625;28;46771;-78
2023/05/09 09:34:00;;;;;;;;;0.50;0.50;;;;;;;;5026382;28;45337;-77
2023/05/09 09:36:27;;;;;;;;;1.00;0.00;;;;;;;;5027840;28;45375;-76
2023/05/09 09:38:55;;;;;;;;;2.00;0.00;;;;;;;;5030103;28;45633;-79
2023/05/09 09:41:22;;;;;;;;;0.00;0.00;;;;;;;;5029521;28;46144;-77
2023/05/09 09:43:47;;;;;;;;;2.00;0.00;;;;;;;;5034347;28;46010;-79
2023/05/09 09:46:12;;;;;;;;;0.00;0.00;;;;;;;;5037915;28;45398;-78
2023/05/09 09:48:38;;;;;;;;;0.00;0.00;;;;;;;;5033916;28;45655;-77
2023/05/09 09:51:10;;;;;;;;;1.00;1.00;;;;;;;;5038141;28;46521;-77
2023/05/09 09:53:39;;;;;;;;;0.00;0.00;;;;;;;;5038107;28;45275;-78
2023/05/09 09:56:04;;;;;;;;;0.00;0.00;;;;;;;;5033848;28;45349;-79
2023/05/09 09:58:29;;;;;;;;;1.50;0.75;;;;;;;;5032130;28;45472;-78
2023/05/09 10:01:12;;;;;;;;;0.00;0.00;;;;;;;;5038036;28;46362;-79
2023/05/09 10:03:39;;;;;;;;;0.00;0.00;;;;;;;;5034620;28;45583;-78
2023/05/09 10:06:04;;;;;;;;;0.00;0.00;;;;;;;;5037485;28;45453;-78
2023/05/09 10:08:30;;;;;;;;;0.00;0.00;;;;;;;;5037883;28;45440;-76
2023/05/09 10:10:57;;;;;;;;;1.75;0.00;;;;;;;;5037326;28;47034;-77
2023/05/09 10:13:22;;;;;;;;;0.00;0.00;;;;;;;;5036930;28;45693;-78
2023/05/09 10:15:47;;;;;;;;;0.50;0.00;;;;;;;;5035106;28;45612;-81
2023/05/09 10:18:18;;;;;;;;;1.50;0.00;;;;;;;;5030428;28;45370;-78
2023/05/09 10:20:43;;;;;;;;;0.00;0.00;;;;;;;;5033883;28;47192;-77
2023/05/09 10:23:10;;;;;;;;;2.00;0.33;;;;;;;;5036714;28;45393;-76
2023/05/09 10:25:43;;;;;;;;;0.00;0.00;;;;;;;;5018116;28;45720;-77
2023/05/09 10:28:20;;;;;;;;;0.75;0.25;;;;;;;;5025345;28;45626;-77
2023/05/09 10:30:51;;;;;;;;;0.25;0.00;;;;;;;;5024683;28;45408;-76
2023/05/09 10:33:20;;;;;;;;;3.00;0.00;;;;;;;;5032752;28;45520;-78
2023/05/09 10:35:46;;;;;;;;;0.00;0.00;;;;;;;;5035589;28;45392;-78
2023/05/09 10:38:12;;;;;;;;;0.00;0.00;;;;;;;;5025297;28;45377;-78
2023/05/09 10:40:39;;;;;;;;;0.00;0.00;;;;;;;;5032830;28;45617;-77
2023/05/09 10:43:06;;;;;;;;;0.00;0.00;;;;;;;;5034552;28;45623;-78
2023/05/09 10:45:31;;;;;;;;;0.00;0.00;;;;;;;;5032828;28;45442;-77
2023/05/09 10:47:57;;;;;;;;;0.00;0.00;;;;;;;;5035280;28;45462;-79
2023/05/09 10:50:22;;;;;;;;;0.00;0.00;;;;;;;;5033868;28;45745;-80
2023/05/09 10:53:15;;;;;;;;;0.00;0.00;;;;;;;;5029731;28;45401;-80
2023/05/09 10:55:50;;;;;;;;;0.00;0.00;;;;;;;;5023741;28;45434;-78
2023/05/09 10:58:18;;;;;;;;;0.00;0.00;;;;;;;;5037350;28;45634;-77
2023/05/09 11:00:44;;;;;;;;;0.50;0.00;;;;;;;;5032187;28;45448;-77
2023/05/09 11:03:10;;;;;;;;;0.00;0.00;;;;;;;;5023906;28;45531;-78
2023/05/09 11:05:38;;;;;;;;;0.00;0.00;;;;;;;;5029059;28;45677;-78
2023/05/09 11:08:19;;;;;;;;;0.00;0.00;;;;;;;;5029555;28;45244;-79
2023/05/09 11:10:44;;;;;;;;;0.75;0.00;;;;;;;;5034844;28;46465;-79
2023/05/09 11:13:10;;;;;;;;;0.00;0.00;;;;;;;;5032501;28;45460;-79
2023/05/09 11:15:48;;;;;;;;;0.67;0.00;;;;;;;;5036330;28;45412;-78
2023/05/09 11:18:13;;;;;;;;;0.00;0.00;;;;;;;;5029191;28;45512;-78
2023/05/09 11:20:42;;;;;;;;;0.00;0.00;;;;;;;;5032555;28;45535;-76
2023/05/09 11:23:09;;;;;;;;;0.00;0.00;;;;;;;;5009264;28;45468;-76
2023/05/09 11:25:40;;;;;;;;;0.00;0.00;;;;;;;;5029290;28;45612;-78
2023/05/09 11:28:06;;;;;;;;;0.00;0.00;;;;;;;;5033306;28;45731;-75
2023/05/09 11:30:37;;;;;;;;;0.00;0.00;;;;;;;;5022666;28;45498;-77
2023/05/09 11:33:05;;;;;;;;;0.00;0.00;;;;;;;;5024462;28;45555;-78
2023/05/09 11:35:32;;;;;;;;;1.00;0.00;;;;;;;;5032576;28;45561;-77
2023/05/09 11:38:04;;;;;;;;;0.00;0.00;;;;;;;;5035452;28;45866;-77
2023/05/09 11:40:30;;;;;;;;;0.75;0.00;;;;;;;;5033863;28;46114;-78
2023/05/09 11:42:55;;;;;;;;;0.00;0.00;;;;;;;;5035945;28;45370;-77
2023/05/09 11:45:21;;;;;;;;;1.25;0.00;;;;;;;;5025020;28;45691;-77
2023/05/09 11:47:48;;;;;;;;;0.00;0.00;;;;;;;;5035957;28;45409;-76
2023/05/09 11:50:13;;;;;;;;;0.00;0.00;;;;;;;;5030980;28;47359;-77
2023/05/09 11:52:39;;;;;;;;;0.00;0.00;;;;;;;;5023749;28;45633;-77
2023/05/09 11:55:09;;;;;;;;;0.00;0.00;;;;;;;;5030570;28;45930;-77
2023/05/09 11:57:35;;;;;;;;;0.00;0.00;;;;;;;;5025007;28;45580;-76
2023/05/09 12:00:01;;;;;;;;;0.00;0.00;;;;;;;;5034017;28;45405;-77
2023/05/09 12:02:27;;;;;;;;;0.00;0.00;;;;;;;;5027021;28;45457;-76
2023/05/09 12:04:53;;;;;;;;;0.00;0.00;;;;;;;;5028328;28;45456;-77
2023/05/09 12:07:19;;;;;;;;;0.00;0.00;;;;;;;;5025329;28;45527;-76
2023/05/09 12:09:44;;;;;;;;;0.75;0.00;;;;;;;;5031142;28;46492;-77
2023/05/09 12:12:10;;;;;;;;;0.00;0.00;;;;;;;;5026437;28;45867;-77
2023/05/09 12:14:35;;;;;;;;;0.00;0.00;;;;;;;;5035328;28;45890;-77
2023/05/09 12:17:01;;;;;;;;;0.00;0.00;;;;;;;;5033480;28;45507;-76
2023/05/09 12:19:26;;;;;;;;;0.00;0.00;;;;;;;;5030684;28;45675;-78
2023/05/09 12:21:58;;;;;;;;;1.75;0.00;;;;;;;;5031646;28;45851;-78
2023/05/09 12:24:25;;;;;;;;;0.00;0.00;;;;;;;;5033005;28;45668;-77
2023/05/09 12:26:51;;;;;;;;;0.00;0.00;;;;;;;;5022222;28;45447;-76
2023/05/09 12:29:16;;;;;;;;;0.75;0.00;;;;;;;;5028031;28;47090;-77
2023/05/09 12:31:42;;;;;;;;;0.00;0.00;;;;;;;;5027009;28;45563;-77
2023/05/09 12:34:08;;;;;;;;;0.00;0.00;;;;;;;;5033097;28;45440;-76
2023/05/09 12:36:34;;;;;;;;;1.50;0.00;;;;;;;;5027239;28;45728;-76
2023/05/09 12:39:00;;;;;;;;;0.00;0.00;;;;;;;;5032623;28;47070;-75
2023/05/09 12:41:25;;;;;;;;;0.00;0.00;;;;;;;;5025920;28;45374;-78
2023/05/09 12:43:51;;;;;;;;;0.00;0.00;;;;;;;;5031013;28;45285;-78
2023/05/09 12:46:16;;;;;;;;;1.00;0.00;;;;;;;;5028250;28;45430;-77
2023/05/09 12:48:42;;;;;;;;;1.00;0.00;;;;;;;;5030032;28;45587;-77
2023/05/09 12:51:08;;;;;;;;;1.50;0.00;;;;;;;;5019362;28;45384;-77
2023/05/09 12:53:37;;;;;;;;;0.00;0.00;;;;;;;;5027981;28;45389;-78
2023/05/09 12:56:03;;;;;;;;;0.25;0.00;;;;;;;;5031037;28;45377;-77
2023/05/09 12:58:32;;;;;;;;;0.00;0.00;;;;;;;;5033520;28;45549;-77
2023/05/09 13:00:58;;;;;;;;;0.25;0.00;;;;;;;;5034908;28;45781;-77
2023/05/09 13:03:24;;;;;;;;;0.00;0.00;;;;;;;;5028229;28;45550;-77
2023/05/09 13:05:54;;;;;;;;;0.00;0.00;;;;;;;;5029624;28;45495;-77
2023/05/09 13:08:20;;;;;;;;;0.00;0.00;;;;;;;;5034257;28;46529;-77
2023/05/09 13:10:45;;;;;;;;;0.00;0.00;;;;;;;;5022695;28;45696;-78
2023/05/09 13:13:14;;;;;;;;;0.00;0.00;;;;;;;;5030688;28;45405;-77
2023/05/09 13:15:39;;;;;;;;;0.00;0.00;;;;;;;;5011384;28;45670;-76
2023/05/09 13:18:04;;;;;;;;;0.00;0.00;;;;;;;;5023670;28;45569;-76
2023/05/09 13:20:30;;;;;;;;;0.33;0.00;;;;;;;;5030861;28;45473;-76
2023/05/09 13:22:55;;;;;;;;;0.00;0.00;;;;;;;;5035040;28;45530;-76
2023/05/09 13:25:20;;;;;;;;;0.75;0.00;;;;;;;;5032834;28;45607;-76
2023/05/09 13:27:45;;;;;;;;;1.00;0.00;;;;;;;;5019942;28;46384;-76
2023/05/09 13:30:11;;;;;;;;;1.00;0.00;;;;;;;;5031870;28;45432;-76
2023/05/09 13:32:36;;;;;;;;;0.50;0.50;;;;;;;;5017433;28;46442;-77
2023/05/09 13:35:03;;;;;;;;;0.00;0.00;;;;;;;;5021792;28;45431;-77
2023/05/09 13:37:28;;;;;;;;;1.00;0.00;;;;;;;;5026932;28;47341;-77
2023/05/09 13:39:54;;;;;;;;;0.00;0.00;;;;;;;;5039643;28;45451;-77
2023/05/09 13:42:19;;;;;;;;;0.00;0.00;;;;;;;;5034797;28;45389;-77
2023/05/09 13:44:44;;;;;;;;;0.00;0.00;;;;;;;;5031095;28;45401;-77
2023/05/09 13:47:10;;;;;;;;;0.00;0.00;;;;;;;;5033537;28;45599;-77
2023/05/09 13:49:35;;;;;;;;;0.00;0.00;;;;;;;;5030880;28;45333;-79
2023/05/09 13:52:01;;;;;;;;;0.00;0.00;;;;;;;;5032298;28;45416;-80
2023/05/09 13:54:28;;;;;;;;;0.00;0.00;;;;;;;;5031912;28;45338;-79
2023/05/09 13:56:53;;;;;;;;;2.00;0.00;;;;;;;;5033261;28;46384;-79
2023/05/09 13:59:18;;;;;;;;;0.00;0.00;;;;;;;;5032406;28;45329;-78
2023/05/09 14:01:44;;;;;;;;;0.00;0.00;;;;;;;;5041768;28;45594;-78
2023/05/09 14:04:09;;;;;;;;;0.00;0.00;;;;;;;;5029916;28;45657;-79
2023/05/09 14:06:34;;;;;;;;;2.33;0.00;;;;;;;;5033317;28;46311;-78
2023/05/09 14:09:00;;;;;;;;;0.00;0.00;;;;;;;;5028332;28;45446;-79
2023/05/09 14:11:25;;;;;;;;;0.00;0.00;;;;;;;;5041434;28;45539;-79
2023/05/09 14:13:54;;;;;;;;;1.00;0.00;;;;;;;;5022451;28;45496;-79
2023/05/09 14:16:19;;;;;;;;;2.00;0.25;;;;;;;;5029434;28;45332;-80
2023/05/09 14:18:45;;;;;;;;;0.00;0.00;;;;;;;;5020220;28;45481;-78
2023/05/09 14:21:10;;;;;;;;;3.00;1.00;;;;;;;;5014046;28;45347;-78
2023/05/09 14:23:35;;;;;;;;;2.00;1.00;;;;;;;;5019553;28;45322;-79
2023/05/09 14:26:00;;;;;;;;;0.00;0.00;;;;;;;;5026710;28;45424;-77
2023/05/09 14:28:26;;;;;;;;;0.00;0.00;;;;;;;;5034108;28;45346;-77
2023/05/09 14:30:51;;;;;;;;;0.00;0.00;;;;;;;;5021058;28;45287;-78
2023/05/09 14:33:16;;;;;;;;;0.25;0.25;;;;;;;;5036056;28;45377;-77
2023/05/09 14:35:42;;;;;;;;;0.00;0.00;;;;;;;;5026961;28;45974;-78
2023/05/09 14:38:07;;;;;;;;;4.00;1.00;;;;;;;;5026678;28;45386;-78